createdAt,value
2019-03-23T00:02:26.596Z,8.90
2019-03-23T00:05:00.348Z,8.86
2019-03-23T00:07:34.014Z,8.80
2019-03-23T00:10:07.972Z,8.79
2019-03-23T00:12:41.895Z,8.78
2019-03-23T00:15:16.428Z,8.75
2019-03-23T00:17:50.163Z,8.72
2019-03-23T00:20:23.901Z,8.70
2019-03-23T00:22:57.594Z,8.68
2019-03-23T00:25:31.224Z,8.66
2019-03-23T00:28:04.960Z,8.60
2019-03-23T00:30:38.591Z,8.57
2019-03-23T00:33:12.321Z,8.51
2019-03-23T00:35:45.962Z,8.48
2019-03-23T00:38:19.617Z,8.40
2019-03-23T00:40:54.300Z,8.39
2019-03-23T00:43:27.922Z,8.36
2019-03-23T00:46:01.778Z,8.32
2019-03-23T00:48:35.417Z,8.28
2019-03-23T00:51:09.105Z,8.24
2019-03-23T00:53:42.786Z,8.20
2019-03-23T00:56:16.617Z,8.17
2019-03-23T00:58:50.454Z,8.11
2019-03-23T01:01:24.081Z,8.04
2019-03-23T01:03:57.756Z,7.99
2019-03-23T01:06:31.412Z,7.90
2019-03-23T01:09:07.528Z,7.85
2019-03-23T01:11:41.270Z,7.78
2019-03-23T01:14:14.870Z,7.76
2019-03-23T01:16:48.373Z,7.73
2019-03-23T01:19:21.983Z,7.68
2019-03-23T01:21:55.604Z,7.63
2019-03-23T01:24:30.229Z,7.57
2019-03-23T01:27:03.912Z,7.52
2019-03-23T01:29:37.446Z,7.48
2019-03-23T01:32:11.085Z,7.42
2019-03-23T01:34:44.668Z,7.38
2019-03-23T01:37:18.384Z,7.15
2019-03-23T01:39:51.983Z,7.03
2019-03-23T01:42:25.732Z,6.99
2019-03-23T01:44:59.334Z,6.98
2019-03-23T01:47:33.031Z,6.98
2019-03-23T01:50:07.492Z,6.95
2019-03-23T01:52:41.000Z,6.98
2019-03-23T01:55:14.645Z,6.98
2019-03-23T01:57:48.154Z,7.01
2019-03-23T02:00:21.762Z,7.01
2019-03-23T02:02:55.375Z,7.03
2019-03-23T02:05:29.040Z,7.08
2019-03-23T02:08:02.701Z,7.12
2019-03-23T02:10:36.262Z,7.14
2019-03-23T02:13:09.986Z,7.16
2019-03-23T02:15:43.674Z,7.14
2019-03-23T02:18:17.252Z,7.13
2019-03-23T02:20:50.956Z,7.16
2019-03-23T02:23:24.698Z,7.14
2019-03-23T02:25:58.295Z,7.07
2019-03-23T02:28:32.005Z,6.98
2019-03-23T02:31:07.315Z,6.90
2019-03-23T02:33:41.021Z,6.85
2019-03-23T02:36:14.736Z,6.86
2019-03-23T02:38:48.370Z,6.85
2019-03-23T02:41:21.911Z,6.82
2019-03-23T02:43:55.570Z,6.80
2019-03-23T02:46:29.361Z,6.76
2019-03-23T02:49:03.137Z,6.71
2019-03-23T02:51:39.606Z,6.71
2019-03-23T02:54:12.171Z,6.71
2019-03-23T02:56:46.087Z,6.70
2019-03-23T02:59:19.678Z,6.66
2019-03-23T03:01:53.324Z,6.67
2019-03-23T03:04:26.900Z,6.66
2019-03-23T03:07:00.590Z,6.63
2019-03-23T03:09:34.095Z,6.54
2019-03-23T03:12:07.840Z,6.46
2019-03-23T03:14:41.530Z,6.44
2019-03-23T03:17:15.112Z,6.39
2019-03-23T03:19:48.775Z,6.43
2019-03-23T03:22:22.451Z,6.44
2019-03-23T03:24:56.170Z,6.44
2019-03-23T03:27:29.783Z,6.37
2019-03-23T03:30:03.424Z,6.33
2019-03-23T03:32:38.011Z,6.35
2019-03-23T03:35:11.913Z,6.34
2019-03-23T03:37:55.694Z,6.32
2019-03-23T03:40:20.759Z,6.31
2019-03-23T03:42:54.384Z,6.25
2019-03-23T03:45:28.930Z,6.27
2019-03-23T03:48:02.514Z,6.28
2019-03-23T03:50:36.161Z,6.28
2019-03-23T03:53:09.810Z,6.27
2019-03-23T03:55:43.419Z,6.20
2019-03-23T03:58:16.961Z,6.17
2019-03-23T04:00:50.618Z,6.17
2019-03-23T04:03:24.239Z,6.16
2019-03-23T04:05:57.930Z,6.11
2019-03-23T04:08:31.596Z,6.10
2019-03-23T04:11:05.796Z,6.04
2019-03-23T04:13:39.463Z,6.05
2019-03-23T04:16:13.197Z,6.00
2019-03-23T04:18:46.849Z,5.98
2019-03-23T04:21:20.491Z,5.99
2019-03-23T04:23:54.155Z,5.96
2019-03-23T04:26:27.804Z,5.93
2019-03-23T04:29:01.520Z,5.91
2019-03-23T04:31:35.273Z,5.86
2019-03-23T04:34:08.932Z,5.85
2019-03-23T04:36:42.693Z,5.82
2019-03-23T04:39:16.348Z,5.82
2019-03-23T04:41:49.963Z,5.82
2019-03-23T04:44:23.600Z,5.79
2019-03-23T04:46:57.232Z,5.77
2019-03-23T04:49:30.902Z,5.77
2019-03-23T04:52:04.578Z,5.73
2019-03-23T04:54:39.014Z,5.66
2019-03-23T04:57:12.874Z,5.56
2019-03-23T04:59:46.507Z,5.48
2019-03-23T05:02:20.117Z,5.42
2019-03-23T05:04:53.965Z,5.43
2019-03-23T05:07:27.595Z,5.51
2019-03-23T05:10:01.172Z,5.54
2019-03-23T05:12:34.896Z,5.49
2019-03-23T05:15:10.104Z,5.52
2019-03-23T05:17:43.875Z,5.57
2019-03-23T05:20:29.425Z,5.59
2019-03-23T05:23:03.117Z,5.60
2019-03-23T05:25:36.869Z,5.61
2019-03-23T05:28:10.733Z,5.57
2019-03-23T05:30:44.430Z,5.59
2019-03-23T05:33:18.185Z,5.58
2019-03-23T05:35:52.021Z,5.60
2019-03-23T05:38:25.608Z,5.64
2019-03-23T05:40:59.348Z,5.60
2019-03-23T05:43:33.262Z,5.63
2019-03-23T05:46:06.910Z,5.68
2019-03-23T05:48:40.606Z,5.75
2019-03-23T05:51:15.954Z,5.78
2019-03-23T05:53:50.219Z,5.80
2019-03-23T05:56:24.024Z,5.79
2019-03-23T05:58:57.703Z,5.70
2019-03-23T06:01:31.537Z,5.73
2019-03-23T06:04:06.068Z,5.80
2019-03-23T06:06:39.789Z,5.98
2019-03-23T06:09:14.845Z,6.05
2019-03-23T06:11:48.953Z,6.16
2019-03-23T06:14:23.768Z,6.33
2019-03-23T06:16:57.490Z,6.53
2019-03-23T06:19:31.406Z,6.69
2019-03-23T06:22:06.663Z,6.81
2019-03-23T06:24:40.562Z,6.93
2019-03-23T06:27:14.280Z,7.06
2019-03-23T06:29:50.006Z,7.20
2019-03-23T06:32:24.507Z,7.35
2019-03-23T06:34:58.234Z,7.48
2019-03-23T06:37:32.884Z,7.60
2019-03-23T06:40:09.591Z,7.73
2019-03-23T06:42:43.330Z,7.84
2019-03-23T06:45:18.585Z,7.96
2019-03-23T06:47:52.234Z,8.02
2019-03-23T06:50:25.934Z,8.15
2019-03-23T06:52:59.596Z,8.24
2019-03-23T06:55:33.332Z,8.34
2019-03-23T06:58:07.064Z,8.43
2019-03-23T07:00:40.716Z,8.56
2019-03-23T07:03:14.295Z,8.72
2019-03-23T07:05:47.830Z,8.83
2019-03-23T07:08:31.498Z,8.92
2019-03-23T07:10:56.696Z,9.11
2019-03-23T07:13:30.353Z,9.20
2019-03-23T07:16:05.034Z,9.31
2019-03-23T07:18:38.658Z,9.38
2019-03-23T07:21:12.627Z,9.51
2019-03-23T07:23:46.300Z,9.60
2019-03-23T07:26:19.792Z,9.77
2019-03-23T07:28:53.442Z,9.91
2019-03-23T07:31:27.101Z,10.03
2019-03-23T07:34:00.660Z,10.11
2019-03-23T07:36:34.416Z,10.20
2019-03-23T07:39:09.536Z,10.36
2019-03-23T07:41:43.076Z,10.51
2019-03-23T07:44:16.663Z,10.60
2019-03-23T07:46:50.394Z,10.70
2019-03-23T07:49:25.819Z,10.77
2019-03-23T07:51:59.425Z,10.88
2019-03-23T07:54:33.260Z,11.12
2019-03-23T07:57:06.956Z,11.31
2019-03-23T07:59:40.906Z,11.47
2019-03-23T08:02:14.429Z,11.60
2019-03-23T08:04:48.021Z,11.67
2019-03-23T08:07:21.763Z,11.75
2019-03-23T08:09:56.451Z,11.77
2019-03-23T08:12:29.973Z,11.89
2019-03-23T08:15:03.570Z,11.98
2019-03-23T08:17:37.207Z,12.06
2019-03-23T08:20:10.883Z,12.13
2019-03-23T08:22:44.485Z,12.21
2019-03-23T08:25:18.140Z,12.35
2019-03-23T08:27:51.834Z,12.59
2019-03-23T08:30:25.461Z,12.75
2019-03-23T08:32:59.518Z,12.96
2019-03-23T08:35:38.163Z,13.13
2019-03-23T08:38:11.873Z,13.31
2019-03-23T08:40:45.506Z,13.62
2019-03-23T08:43:19.147Z,13.87
2019-03-23T08:45:52.809Z,14.06
2019-03-23T08:48:26.588Z,14.39
2019-03-23T08:51:00.195Z,14.65
2019-03-23T08:53:33.907Z,14.87
2019-03-23T08:56:07.492Z,15.13
2019-03-23T08:58:37.712Z,15.61
2019-03-23T09:01:11.377Z,16.02
2019-03-23T09:03:52.336Z,16.42
2019-03-23T09:06:20.296Z,16.82
2019-03-23T09:08:53.874Z,17.32
2019-03-23T09:11:27.450Z,17.65
2019-03-23T09:14:01.014Z,17.98
2019-03-23T09:16:34.706Z,18.19
2019-03-23T09:19:08.543Z,18.51
2019-03-23T09:21:42.287Z,18.79
2019-03-23T09:24:15.909Z,18.99
2019-03-23T09:26:50.522Z,19.19
2019-03-23T09:29:24.207Z,19.43
2019-03-23T09:31:57.810Z,19.52
2019-03-23T09:34:31.386Z,19.73
2019-03-23T09:37:05.102Z,19.68
2019-03-23T09:39:38.760Z,19.49
2019-03-23T09:42:12.338Z,19.57
2019-03-23T09:44:45.949Z,19.70
2019-03-23T09:47:19.563Z,19.74
2019-03-23T09:49:53.337Z,19.86
2019-03-23T09:52:26.921Z,19.84
2019-03-23T09:55:00.567Z,20.02
2019-03-23T09:57:34.152Z,20.15
2019-03-23T10:00:08.386Z,20.33
2019-03-23T10:02:42.183Z,20.50
2019-03-23T10:05:15.762Z,20.49
2019-03-23T10:07:49.425Z,20.61
2019-03-23T10:10:22.984Z,20.92
2019-03-23T10:12:56.626Z,20.93
2019-03-23T10:15:30.221Z,21.10
2019-03-23T10:18:03.817Z,21.31
2019-03-23T10:20:37.373Z,21.29
2019-03-23T10:23:11.081Z,21.41
2019-03-23T10:25:44.759Z,21.41
2019-03-23T10:28:18.370Z,21.59
2019-03-23T10:30:51.982Z,21.51
2019-03-23T10:33:25.632Z,21.47
2019-03-23T10:35:59.314Z,21.80
2019-03-23T10:38:32.937Z,22.08
2019-03-23T10:41:06.533Z,21.75
2019-03-23T10:43:40.088Z,22.01
2019-03-23T10:46:13.735Z,22.28
2019-03-23T10:48:47.315Z,22.75
2019-03-23T10:51:21.019Z,22.81
2019-03-23T10:53:54.720Z,22.79
2019-03-23T10:56:28.372Z,22.82
2019-03-23T10:59:01.911Z,22.74
2019-03-23T11:01:35.516Z,22.78
2019-03-23T11:04:09.146Z,22.42
2019-03-23T11:06:42.866Z,22.54
2019-03-23T11:09:16.631Z,22.72
2019-03-23T11:11:50.309Z,22.46
2019-03-23T11:14:23.816Z,22.34
2019-03-23T11:16:57.381Z,22.35
2019-03-23T11:19:30.970Z,22.44
2019-03-23T11:22:04.608Z,22.54
2019-03-23T11:24:38.320Z,22.25
2019-03-23T11:27:11.989Z,22.43
2019-03-23T11:29:46.760Z,22.42
2019-03-23T11:32:20.273Z,22.44
2019-03-23T11:34:55.777Z,22.47
2019-03-23T11:37:29.355Z,22.34
2019-03-23T11:40:03.125Z,22.54
2019-03-23T11:42:36.776Z,22.60
2019-03-23T11:45:10.556Z,22.60
2019-03-23T11:47:44.612Z,22.73
2019-03-23T11:50:18.299Z,22.84
2019-03-23T11:52:51.904Z,22.78
2019-03-23T11:55:25.608Z,22.98
2019-03-23T11:57:59.278Z,23.25
2019-03-23T12:00:32.870Z,23.40
2019-03-23T12:03:06.522Z,23.52
2019-03-23T12:05:40.202Z,23.63
2019-03-23T12:08:13.730Z,23.79
2019-03-23T12:10:47.240Z,23.71
2019-03-23T12:13:20.901Z,23.53
2019-03-23T12:15:54.399Z,23.53
2019-03-23T12:18:28.070Z,23.53
2019-03-23T12:21:01.737Z,23.53
2019-03-23T12:23:37.277Z,23.73
2019-03-23T12:26:10.848Z,23.71
2019-03-23T12:28:44.371Z,23.91
2019-03-23T12:31:18.103Z,23.76
2019-03-23T12:37:18.934Z,23.52
2019-03-23T12:39:52.713Z,23.60
2019-03-23T12:42:26.442Z,23.55
2019-03-23T12:45:00.301Z,23.57
2019-03-23T12:47:35.462Z,23.52
2019-03-23T12:50:10.261Z,23.31
2019-03-23T12:52:43.967Z,23.08
2019-03-23T12:55:17.567Z,23.01
2019-03-23T12:57:51.163Z,23.08
2019-03-23T13:00:24.893Z,23.07
2019-03-23T13:02:58.653Z,23.03
2019-03-23T13:05:32.381Z,22.86
2019-03-23T13:08:06.195Z,22.82
2019-03-23T13:10:40.036Z,22.81
2019-03-23T13:13:15.008Z,22.64
2019-03-23T13:15:48.946Z,22.41
2019-03-23T13:18:27.173Z,22.24
2019-03-23T13:20:58.018Z,22.12
2019-03-23T13:23:31.556Z,22.16
2019-03-23T13:26:05.209Z,22.23
2019-03-23T13:28:38.974Z,22.07
2019-03-23T13:31:12.623Z,22.06
2019-03-23T13:33:46.197Z,21.90
2019-03-23T13:36:19.879Z,21.95
2019-03-23T13:38:53.563Z,21.80
2019-03-23T13:41:27.216Z,21.72
2019-03-23T13:44:01.178Z,21.69
2019-03-23T13:46:34.871Z,21.68
2019-03-23T13:49:08.511Z,21.63
2019-03-23T13:51:43.669Z,21.56
2019-03-23T13:54:17.381Z,21.53
2019-03-23T13:56:51.070Z,21.46
2019-03-23T13:59:25.052Z,21.18
2019-03-23T14:01:58.831Z,21.15
2019-03-23T14:04:34.136Z,21.13
2019-03-23T14:07:07.848Z,21.13
2019-03-23T14:09:42.882Z,21.10
2019-03-23T14:12:16.994Z,20.97
2019-03-23T14:14:50.959Z,20.92
2019-03-23T14:17:24.690Z,20.84
2019-03-23T14:19:58.481Z,20.73
2019-03-23T14:22:32.594Z,20.68
2019-03-23T14:25:06.589Z,20.65
2019-03-23T14:27:40.256Z,20.56
2019-03-23T14:30:15.420Z,20.50
2019-03-23T14:32:49.101Z,20.43
2019-03-23T14:35:22.831Z,20.40
2019-03-23T14:37:56.582Z,20.36
2019-03-23T14:40:31.277Z,20.33
2019-03-23T14:43:04.931Z,20.35
2019-03-23T14:45:38.627Z,20.33
2019-03-23T14:48:12.372Z,20.27
2019-03-23T14:50:46.037Z,20.23
2019-03-23T14:53:19.694Z,20.25
2019-03-23T14:55:53.233Z,20.26
2019-03-23T14:58:26.833Z,20.25
2019-03-23T15:01:00.401Z,20.20
2019-03-23T15:03:35.076Z,20.19
2019-03-23T15:06:10.306Z,20.25
2019-03-23T15:08:48.087Z,20.28
2019-03-23T15:11:21.781Z,20.24
2019-03-23T15:13:55.479Z,20.18
2019-03-23T15:16:29.298Z,20.13
2019-03-23T15:19:02.924Z,20.10
2019-03-23T15:21:36.827Z,20.05
2019-03-23T15:24:11.065Z,19.95
2019-03-23T15:26:47.485Z,19.86
2019-03-23T15:29:21.027Z,19.79
2019-03-23T15:31:54.589Z,19.76
2019-03-23T15:34:28.146Z,19.74
2019-03-23T15:37:02.131Z,19.76
2019-03-23T15:39:38.335Z,19.74
2019-03-23T15:42:12.601Z,19.72
2019-03-23T15:44:50.295Z,19.68
2019-03-23T15:47:23.958Z,19.61
2019-03-23T15:50:05.829Z,19.57
2019-03-23T15:52:47.741Z,19.57
2019-03-23T16:31:20.368Z,18.30
2019-03-23T16:34:05.148Z,18.20
2019-03-23T16:36:42.301Z,18.11
2019-03-23T16:39:27.154Z,18.01
2019-03-23T16:42:11.185Z,17.90
2019-03-23T16:44:45.371Z,17.76
2019-03-23T16:47:26.880Z,17.53
2019-03-23T16:50:03.955Z,17.35
2019-03-23T16:52:41.744Z,17.09
2019-03-23T16:55:19.826Z,16.86
2019-03-23T16:58:03.724Z,16.68
2019-03-23T17:00:53.707Z,16.45
2019-03-23T17:03:52.461Z,16.32
2019-03-23T17:06:27.325Z,16.12
2019-03-23T17:09:08.176Z,15.98
2019-03-23T17:11:46.051Z,15.88
2019-03-23T17:14:20.467Z,15.72
2019-03-23T17:16:54.894Z,15.60
2019-03-23T17:19:29.769Z,15.45
2019-03-23T17:22:07.313Z,15.36
2019-03-23T17:24:40.957Z,15.20
2019-03-23T17:27:17.759Z,15.04
2019-03-23T17:29:51.601Z,14.80
2019-03-23T17:32:25.290Z,14.62
2019-03-23T17:34:59.126Z,14.46
2019-03-23T17:37:33.053Z,14.31
2019-03-23T17:40:07.347Z,14.06
2019-03-23T17:42:41.328Z,13.84
2019-03-23T17:45:15.524Z,13.65
2019-03-23T17:47:51.140Z,13.46
2019-03-23T17:50:24.952Z,13.28
2019-03-23T17:52:58.677Z,13.12
2019-03-23T17:55:32.631Z,12.96
2019-03-23T17:58:06.570Z,12.88
2019-03-23T18:00:40.793Z,12.77
2019-03-23T18:03:15.643Z,12.69
2019-03-23T18:05:49.989Z,12.51
2019-03-23T18:08:24.753Z,12.39
2019-03-23T18:11:02.160Z,12.29
2019-03-23T18:13:38.909Z,12.18
2019-03-23T18:16:13.052Z,12.11
2019-03-23T18:18:47.069Z,11.99
2019-03-23T18:21:22.602Z,11.90
2019-03-23T18:23:56.847Z,11.81
2019-03-23T18:26:31.200Z,11.77
2019-03-23T18:29:05.241Z,11.69
2019-03-23T18:31:38.963Z,11.63
2019-03-23T18:34:12.826Z,11.54
2019-03-23T18:36:47.042Z,11.47
2019-03-23T18:39:21.089Z,11.43
2019-03-23T18:41:55.277Z,11.38
2019-03-23T18:44:29.094Z,11.36
2019-03-23T18:47:03.292Z,11.33
2019-03-23T18:49:40.087Z,11.26
2019-03-23T18:52:14.980Z,11.20
2019-03-23T18:54:50.935Z,11.18
2019-03-23T18:57:24.731Z,11.18
2019-03-23T18:59:58.958Z,11.15
2019-03-23T19:02:33.264Z,11.12
2019-03-23T19:05:08.322Z,11.09
2019-03-23T19:07:42.463Z,11.04
2019-03-23T19:10:20.492Z,11.03
2019-03-23T19:12:54.548Z,11.00
2019-03-23T19:15:29.328Z,10.92
2019-03-23T19:18:06.420Z,10.91
2019-03-23T19:20:40.409Z,10.88
2019-03-23T19:23:15.386Z,10.85
2019-03-23T19:25:49.313Z,10.83
2019-03-23T19:28:23.663Z,10.81
2019-03-23T19:30:58.009Z,10.78
2019-03-23T19:33:32.921Z,10.75
2019-03-23T19:36:06.989Z,10.70
2019-03-23T19:38:40.960Z,10.69
2019-03-23T19:41:14.829Z,10.67
2019-03-23T19:43:51.813Z,10.64
2019-03-23T19:46:24.908Z,10.60
2019-03-23T19:48:58.807Z,10.56
2019-03-23T19:51:32.543Z,10.52
2019-03-23T19:54:07.368Z,10.51
2019-03-23T19:56:42.116Z,10.52
2019-03-23T19:59:15.710Z,10.42
2019-03-23T20:01:49.538Z,10.45
2019-03-23T20:04:23.713Z,10.44
2019-03-23T20:06:57.624Z,10.37
2019-03-23T20:09:34.924Z,10.37
2019-03-23T20:12:08.713Z,10.39
2019-03-23T20:14:42.582Z,10.39
2019-03-23T20:17:16.547Z,10.41
2019-03-23T20:19:51.601Z,10.45
2019-03-23T20:22:25.711Z,10.45
2019-03-23T20:24:59.729Z,10.44
2019-03-23T20:27:35.017Z,10.39
2019-03-23T20:30:12.965Z,10.35
2019-03-23T20:32:47.084Z,10.33
2019-03-23T20:35:20.900Z,10.35
2019-03-23T20:37:56.240Z,10.30
2019-03-23T20:40:30.111Z,10.16
2019-03-23T20:43:03.835Z,10.14
2019-03-23T20:45:37.709Z,10.07
2019-03-23T20:48:11.945Z,9.94
2019-03-23T20:50:46.127Z,9.87
2019-03-23T20:53:21.957Z,9.78
2019-03-23T20:55:55.638Z,9.68
2019-03-23T20:58:29.431Z,9.63
2019-03-23T21:01:03.249Z,9.65
2019-03-23T21:03:37.202Z,9.57
2019-03-23T21:06:12.582Z,9.53
2019-03-23T21:08:46.911Z,9.51
2019-03-23T21:11:20.698Z,9.48
2019-03-23T21:13:54.716Z,9.45
2019-03-23T21:16:28.703Z,9.39
2019-03-23T21:19:02.664Z,9.38
2019-03-23T21:21:36.442Z,9.35
2019-03-23T21:24:10.126Z,9.29
2019-03-23T21:26:44.380Z,9.30
2019-03-23T21:29:18.131Z,9.28
2019-03-23T21:31:51.766Z,9.23
2019-03-23T21:34:25.485Z,9.19
2019-03-23T21:36:59.139Z,9.17
2019-03-23T21:39:35.156Z,9.11
2019-03-23T21:42:08.923Z,9.08
2019-03-23T21:44:46.168Z,9.04
2019-03-23T21:47:19.948Z,8.99
2019-03-23T21:49:53.706Z,8.97
2019-03-23T21:52:27.594Z,8.93
2019-03-23T21:55:01.404Z,8.93
2019-03-23T21:57:35.263Z,8.86
2019-03-23T22:00:16.275Z,8.79
2019-03-23T22:02:50.310Z,8.75
2019-03-23T22:05:24.121Z,8.73
2019-03-23T22:07:57.948Z,8.68
2019-03-23T22:10:31.776Z,8.71
2019-03-23T22:13:05.719Z,8.64
2019-03-23T22:15:39.511Z,8.60
2019-03-23T22:18:13.279Z,8.60
2019-03-23T22:20:47.406Z,8.54
2019-03-23T22:23:21.067Z,8.50
2019-03-23T22:25:54.731Z,8.44
2019-03-23T22:28:28.517Z,8.44
2019-03-23T22:31:02.970Z,8.40
2019-03-23T22:33:36.760Z,8.36
2019-03-23T22:36:10.420Z,8.36
2019-03-23T22:38:48.651Z,8.31
2019-03-23T22:41:23.085Z,8.29
2019-03-23T22:43:58.070Z,8.26
2019-03-23T22:46:32.010Z,8.28
2019-03-23T22:49:06.230Z,8.23
2019-03-23T22:51:39.869Z,8.19
2019-03-23T22:54:13.733Z,8.11
2019-03-23T22:56:47.579Z,8.08
2019-03-23T22:59:21.316Z,8.08
2019-03-23T23:01:55.257Z,8.03
2019-03-23T23:04:28.950Z,8.00
2019-03-23T23:07:02.694Z,8.12
2019-03-23T23:09:37.591Z,8.13
2019-03-23T23:12:11.340Z,8.13
2019-03-23T23:14:48.998Z,8.11
2019-03-23T23:17:22.727Z,8.13
2019-03-23T23:19:56.488Z,8.09
2019-03-23T23:22:30.258Z,8.02
2019-03-23T23:25:04.525Z,8.02
2019-03-23T23:27:39.771Z,8.00
2019-03-23T23:30:14.232Z,8.02
2019-03-23T23:32:47.989Z,8.05
2019-03-23T23:35:21.753Z,8.01
2019-03-23T23:37:57.082Z,8.03
2019-03-23T23:40:30.778Z,7.96
2019-03-23T23:43:04.670Z,7.95
2019-03-23T23:45:38.541Z,7.91
2019-03-23T23:48:14.922Z,7.89
2019-03-23T23:50:51.279Z,7.88
2019-03-23T23:53:25.271Z,7.90
2019-03-23T23:55:58.925Z,7.88
2019-03-23T23:58:32.606Z,7.80
